St. Louis Express — WDD3825 — position and weather

sailwx.info

Track history (hours):
 
Tides and Currents Weather Stations Pressure Air Temp Water Temp Dewpoint Dewpoint Depression Visibility Wind Speed Wind Dir Waves Ship Positions

St. Louis Express

Owner: Marine Transport Management, Inc (Nick Orfanidis), Jacksonville, FL. More information available from US FCC via Universal Licensing System.

Last reported at 2018-Jul-21 17:29 UTC. Time now 2018-Jul-21 17:27 UTC.
Position N 32°07' W 081°08'.

Type: Cargo ship. MMSI: 367136680.

Date/timePositionNaut miles runAvg speedWind from/ knotsBaromVisibWave heightAir tempDewpointWater temp
2018-Jul-21 17:29N 32°07' W 081°08'0 0.0
2018-Jul-21 16:59N 32°07' W 081°08'0 0.0
2018-Jul-21 16:23N 32°07' W 081°08'0 0.0
2018-Jul-21 15:53N 32°07' W 081°08'0 0.0
2018-Jul-21 15:29N 32°07' W 081°08'0 0.0
2018-Jul-21 14:35N 32°07' W 081°08'0 0.0
2018-Jul-21 14:23N 32°07' W 081°08'0 0.0
2018-Jul-21 13:59N 32°07' W 081°08'0 0.0
2018-Jul-21 13:27N 32°07' W 081°08'2 4.1
2018-Jul-21 13:00N 32°06' W 081°06'3 5.6
2018-Jul-21 12:30N 32°05' W 081°03'4 7.1
2018-Jul-21 12:00N 32°05' W 080°59'510.2
2018-Jul-21 11:30N 32°02' W 080°54'611.5
2018-Jul-21 11:00N 32°00' W 080°48'814.8
2018-Jul-21 10:30N 31°57' W 080°40'5 8.8
2018-Jul-21 09:58N 31°53' W 080°37'611.4
2018-Jul-21 09:28N 31°48' W 080°33'29517.1
2018-Jul-20 16:16N 26°57' W 079°45'2524.5
2018-Jul-20 15:16N 26°32' W 079°47'724.3
2018-Jul-20 14:59N 26°25' W 079°47'1224.3
2018-Jul-20 14:30N 26°14' W 079°46'1224.3
2018-Jul-20 14:00N 26°02' W 079°48'1224.5
2018-Jul-20 13:30N 25°49' W 079°50'1224.2
2018-Jul-20 13:01N 25°38' W 079°53'1224.1
2018-Jul-20 12:31N 25°26' W 079°57'29519.0
2018-Jul-19 20:56N 25°05' W 085°22'47019.9
2018-Jul-18 21:16N 28°27' W 093°18'1020.6
2018-Jul-18 20:48N 28°33' W 093°26'620.7
2018-Jul-18 20:30N 28°37' W 093°32'1120.4
2018-Jul-18 19:59N 28°43' W 093°42'1020.5
2018-Jul-18 19:30N 28°49' W 093°51'1120.7
2018-Jul-18 18:58N 28°52' W 094°03'1220.9
2018-Jul-18 18:24N 28°55' W 094°16'819.4
2018-Jul-18 18:00N 28°57' W 094°25'1019.5
2018-Jul-18 17:29N 29°07' W 094°26'1019.8
2018-Jul-18 17:01N 29°14' W 094°33'714.7
2018-Jul-18 16:30N 29°19' W 094°39'510.7
2018-Jul-18 16:00N 29°21' W 094°45'510.5
2018-Jul-18 15:30N 29°24' W 094°49'510.9
2018-Jul-18 15:00N 29°29' W 094°52'5 9.2
2018-Jul-18 14:30N 29°33' W 094°55'9 8.8
2018-Jul-18 13:30N 29°41' W 094°59'0 0.8
2018-Jul-18 13:00N 29°41' W 094°60'0 0.0
2018-Jul-18 12:30N 29°41' W 094°60'0 0.0
2018-Jul-18 11:59N 29°41' W 094°60'0 0.0
2018-Jul-18 11:29N 29°41' W 094°60'0 0.0
2018-Jul-18 10:29N 29°41' W 094°60'0 0.0
2018-Jul-18 09:59N 29°41' W 094°60'0 0.0
2018-Jul-18 09:29N 29°41' W 094°60'0 0.0
2018-Jul-18 08:59N 29°41' W 094°60'0 0.0
2018-Jul-18 08:29N 29°41' W 094°60'0 0.0
2018-Jul-18 07:59N 29°41' W 094°60'0 0.0
2018-Jul-18 07:29N 29°41' W 094°60'0 0.0
2018-Jul-18 06:59N 29°41' W 094°60'0 0.0
2018-Jul-18 06:29N 29°41' W 094°60'0 0.0
2018-Jul-18 05:59N 29°41' W 094°60'0 0.0
2018-Jul-18 05:29N 29°41' W 094°60'0 0.0
2018-Jul-18 04:59N 29°41' W 094°60'0 0.0
2018-Jul-18 04:29N 29°41' W 094°60'0 0.0
2018-Jul-18 03:59N 29°41' W 094°60'0 0.0
2018-Jul-18 03:29N 29°41' W 094°60'0 0.0
2018-Jul-18 02:59N 29°41' W 094°60'0 0.0
2018-Jul-18 02:29N 29°41' W 094°60'0 0.0
2018-Jul-18 01:59N 29°41' W 094°60'0 0.0
2018-Jul-18 01:29N 29°41' W 094°60'0 0.0
2018-Jul-18 00:59N 29°41' W 094°60'0 0.0
2018-Jul-18 00:26N 29°41' W 094°60'0 0.0
2018-Jul-17 23:59N 29°41' W 094°60'0 0.0
2018-Jul-17 23:29N 29°41' W 094°60'0 0.0
2018-Jul-17 22:59N 29°41' W 094°60'0 0.0
2018-Jul-17 22:29N 29°41' W 094°60'0 0.0
2018-Jul-17 21:59N 29°41' W 094°60'0 0.0
2018-Jul-17 21:29N 29°41' W 094°60'0 0.0
2018-Jul-17 20:59N 29°41' W 094°60'0 0.0
2018-Jul-17 20:29N 29°41' W 094°60'0 0.0
2018-Jul-17 19:59N 29°41' W 094°60'0 0.0
2018-Jul-17 19:29N 29°41' W 094°60'0 0.0
2018-Jul-17 18:59N 29°41' W 094°60'0 0.0
2018-Jul-17 18:29N 29°41' W 094°60'0 0.0
2018-Jul-17 17:59N 29°41' W 094°60'0 0.0
2018-Jul-17 17:26N 29°41' W 094°60'0 0.0
2018-Jul-17 16:59N 29°41' W 094°60'0 0.0
2018-Jul-17 16:29N 29°41' W 094°60'0 0.0
2018-Jul-17 15:59N 29°41' W 094°60'0 0.0
2018-Jul-17 15:26N 29°41' W 094°60'0 0.0
2018-Jul-17 14:59N 29°41' W 094°60'0 0.0
2018-Jul-17 14:29N 29°41' W 094°60'0 0.0
2018-Jul-17 13:59N 29°41' W 094°60'0 0.0
2018-Jul-17 13:29N 29°41' W 094°60'0 0.0
2018-Jul-17 12:59N 29°41' W 094°60'0 0.0
2018-Jul-17 12:29N 29°41' W 094°60'0 0.0
2018-Jul-17 11:59N 29°41' W 094°60'0 0.0
2018-Jul-17 11:29N 29°41' W 094°60'0 0.0
2018-Jul-17 10:59N 29°41' W 094°60'0 0.0
2018-Jul-17 10:29N 29°41' W 094°60'0 0.0
2018-Jul-17 09:59N 29°41' W 094°60'0 0.0
2018-Jul-17 09:29N 29°41' W 094°60'0 0.0
2018-Jul-17 08:56N 29°41' W 094°60'0 0.0
2018-Jul-17 08:29N 29°41' W 094°60'0 0.0
2018-Jul-17 07:56N 29°41' W 094°60'0 0.0
2018-Jul-17 07:29N 29°41' W 094°60'0 0.0
2018-Jul-17 06:59N 29°41' W 094°60'0 0.0
2018-Jul-17 06:29N 29°41' W 094°60'0 0.0
2018-Jul-17 05:59N 29°41' W 094°60'0 0.0
2018-Jul-17 05:29N 29°41' W 094°60'0 0.0
2018-Jul-17 04:59N 29°41' W 094°60'0 0.0
2018-Jul-17 04:29N 29°41' W 094°60'0 0.0
2018-Jul-17 03:59N 29°41' W 094°60'0 0.0
2018-Jul-17 03:29N 29°41' W 094°60'0 1.0
2018-Jul-17 03:01N 29°41' W 094°59'4 7.3
2018-Jul-17 02:30N 29°38' W 094°58'611.0
2018-Jul-17 02:00N 29°33' W 094°54'611.9
2018-Jul-17 01:30N 29°28' W 094°51'611.9
2018-Jul-17 01:00N 29°22' W 094°48'611.1
2018-Jul-17 00:30N 29°21' W 094°42'1212.2
2018-Jul-16 23:30N 29°14' W 094°30'5 9.6
2018-Jul-16 23:00N 29°12' W 094°26'714.0
2018-Jul-16 22:30N 29°07' W 094°19'714.2
2018-Jul-16 22:00N 29°03' W 094°12'917.4
2018-Jul-16 21:30N 28°58' W 094°04'1019.6
2018-Jul-16 21:00N 28°53' W 093°55'1119.9
2018-Jul-16 20:27N 28°46' W 093°45'1119.8
2018-Jul-16 19:55N 28°40' W 093°35'919.8
2018-Jul-16 19:29N 28°35' W 093°27'1019.6
2018-Jul-16 18:58N 28°29' W 093°18'71718.7
2018-Jul-15 04:36N 24°43' W 080°37'2018.4
2018-Jul-15 03:30N 24°55' W 080°19'1517.7
2018-Jul-15 02:39N 25°07' W 080°09'418.3
2018-Jul-15 02:27N 25°10' W 080°07'818.3
2018-Jul-15 02:01N 25°18' W 080°04'816.9
2018-Jul-15 01:30N 25°26' W 080°02'917.7
2018-Jul-15 01:01N 25°35' W 080°02'917.7
2018-Jul-15 00:31N 25°44' W 080°02'918.6
2018-Jul-15 00:01N 25°53' W 080°02'918.7
2018-Jul-14 23:30N 26°02' W 080°03'5 9.2
2018-Jul-14 23:00N 26°06' W 080°06'1 2.7
2018-Jul-14 22:28N 26°04' W 080°07'0 0.0
2018-Jul-14 21:55N 26°04' W 080°07'0 0.0
2018-Jul-14 21:25N 26°04' W 080°07'0 0.0
2018-Jul-14 20:55N 26°04' W 080°07'0 0.0
2018-Jul-14 20:28N 26°04' W 080°07'0 0.0
2018-Jul-14 19:58N 26°04' W 080°07'0 0.0
2018-Jul-14 19:28N 26°04' W 080°07'0 0.0
2018-Jul-14 18:58N 26°04' W 080°07'0 0.0
2018-Jul-14 18:28N 26°04' W 080°07'0 0.0
2018-Jul-14 17:58N 26°04' W 080°07'0 0.0
2018-Jul-14 17:28N 26°04' W 080°07'0 0.0
2018-Jul-14 16:58N 26°04' W 080°07'0 0.0
2018-Jul-14 16:28N 26°04' W 080°07'0 0.0
2018-Jul-14 15:58N 26°04' W 080°07'0 0.0
2018-Jul-14 15:28N 26°04' W 080°07'0 0.0
2018-Jul-14 14:58N 26°04' W 080°07'0 0.0
2018-Jul-14 13:58N 26°04' W 080°07'0 0.0
2018-Jul-14 13:19N 26°04' W 080°07'0 0.0
2018-Jul-14 12:58N 26°04' W 080°07'0 0.0
2018-Jul-14 12:25N 26°04' W 080°07'0 0.0
2018-Jul-14 11:52N 26°04' W 080°07'0 0.0
2018-Jul-14 11:28N 26°04' W 080°07'1 2.0
2018-Jul-14 11:00N 26°05' W 080°07'3 6.7
2018-Jul-14 10:30N 26°05' W 080°03'2 3.5
2018-Jul-14 10:00N 26°06' W 080°01'0 0.5
2018-Jul-14 09:30N 26°06' W 080°02'1 2.2
2018-Jul-14 09:00N 26°07' W 080°02'611.4
2018-Jul-14 08:30N 26°13' W 080°01'918.3
2018-Jul-14 08:00N 26°22' W 079°59'917.2
2018-Jul-14 07:30N 26°30' W 079°58'3 4.9
2018-Jul-14 06:59N 26°28' W 079°58'816.9
2018-Jul-14 06:31N 26°36' W 079°58'816.1
2018-Jul-14 06:00N 26°44' W 079°56'917.4
2018-Jul-14 05:30N 26°46' W 079°46'815.3
2018-Jul-14 05:00N 26°48' W 079°55'815.6
2018-Jul-14 04:30N 26°56' W 079°57'816.1
2018-Jul-14 04:00N 27°04' W 079°58'26612.2
2018-Jul-13 06:10N 31°30' W 079°54'718.6
2018-Jul-13 05:48N 31°36' W 079°52'1218.6
2018-Jul-13 05:10N 31°48' W 079°48'618.8
2018-Jul-13 04:53N 31°53' W 079°46'718.7
2018-Jul-13 04:30N 31°59' W 079°43'918.7
2018-Jul-13 04:00N 32°09' W 079°42'918.7
2018-Jul-13 03:30N 32°18' W 079°41'1018.7
2018-Jul-13 02:59N 32°28' W 079°40'1116.5
2018-Jul-13 02:18N 32°39' W 079°40'515.2
2018-Jul-13 02:00N 32°42' W 079°45'817.1
2018-Jul-13 01:30N 32°46' W 079°53'9 2.2
2018-Jul-12 21:28N 32°54' W 079°58'0 0.0
2018-Jul-12 20:55N 32°54' W 079°58'0 0.0
2018-Jul-12 20:25N 32°54' W 079°58'0 0.0
2018-Jul-12 19:58N 32°54' W 079°58'0 0.0
2018-Jul-12 19:28N 32°54' W 079°58'0 0.0
2018-Jul-12 18:55N 32°54' W 079°58'0 0.0
2018-Jul-12 18:25N 32°54' W 079°58'0 0.0
2018-Jul-12 17:40N 32°54' W 079°58'0 0.0
2018-Jul-12 17:19N 32°54' W 079°58'0 0.0
2018-Jul-12 16:49N 32°54' W 079°58'0 0.0
2018-Jul-12 16:10N 32°54' W 079°58'0 0.0
2018-Jul-12 15:58N 32°54' W 079°58'0 0.0
2018-Jul-12 15:28N 32°54' W 079°58'0 0.0
2018-Jul-12 14:58N 32°54' W 079°58'0 0.0
2018-Jul-12 14:19N 32°54' W 079°58'9 1.6
2018-Jul-12 08:32N 32°46' W 079°53'111.0
2018-Jul-12 08:29N 32°46' W 079°52'714.0
2018-Jul-12 08:00N 32°42' W 079°46'713.2
2018-Jul-12 07:30N 32°38' W 079°39'2 3.0
2018-Jul-12 06:56N 32°37' W 079°39'0 0.5
2018-Jul-12 06:18N 32°37' W 079°39'0 0.3
2018-Jul-12 05:58N 32°37' W 079°39'0 0.8
2018-Jul-12 05:29N 32°37' W 079°40'0 0.5
2018-Jul-12 05:00N 32°37' W 079°40'0 0.6
2018-Jul-12 04:30N 32°37' W 079°40'0 0.7
2018-Jul-12 04:00N 32°37' W 079°40'0 0.4
2018-Jul-12 03:29N 32°37' W 079°40'0 0.9
2018-Jul-12 03:00N 32°37' W 079°39'2 3.4
2018-Jul-12 02:30N 32°36' W 079°38'0 0.2
2018-Jul-12 01:56N 32°36' W 079°38'0 0.2
2018-Jul-12 01:30N 32°36' W 079°38'1 0.9
2018-Jul-12 00:57N 32°36' W 079°37'1 1.7
2018-Jul-12 00:30N 32°35' W 079°36'0 0.8
2018-Jul-11 23:59N 32°35' W 079°37'1 2.2
2018-Jul-11 23:30N 32°35' W 079°35'510.4
2018-Jul-11 23:01N 32°35' W 079°29'917.6
2018-Jul-11 22:30N 32°33' W 079°19'918.3
2018-Jul-11 22:00N 32°32' W 079°08'1018.8
2018-Jul-11 21:29N 32°31' W 078°57'919.2
2018-Jul-11 21:00N 32°29' W 078°46'1019.7
2018-Jul-11 20:30N 32°28' W 078°34'1019.4
2018-Jul-11 20:00N 32°27' W 078°23'1020.4
2018-Jul-11 19:30N 32°27' W 078°11'  
Track history (hours):
 
Tides and Currents Weather Stations Pressure Air Temp Water Temp Dewpoint Dewpoint Depression Visibility Wind Speed Wind Dir Waves Ship Positions

St. Louis Express

Owner: Marine Transport Management, Inc (Nick Orfanidis), Jacksonville, FL. More information available from US FCC via Universal Licensing System.

Last reported at 2018-Jul-21 17:29 UTC. Time now 2018-Jul-21 17:27 UTC.
Position N 32°07' W 081°08'.

Type: Cargo ship. MMSI: 367136680.

Date/timePositionNaut miles runAvg speedWind from/ knotsBaromVisibWave heightAir tempDewpointWater temp
2018-Jul-21 17:29N 32°07' W 081°08'0 0.0
2018-Jul-21 16:59N 32°07' W 081°08'0 0.0
2018-Jul-21 16:23N 32°07' W 081°08'0 0.0
2018-Jul-21 15:53N 32°07' W 081°08'0 0.0
2018-Jul-21 15:29N 32°07' W 081°08'0 0.0
2018-Jul-21 14:35N 32°07' W 081°08'0 0.0
2018-Jul-21 14:23N 32°07' W 081°08'0 0.0
2018-Jul-21 13:59N 32°07' W 081°08'0 0.0
2018-Jul-21 13:27N 32°07' W 081°08'2 4.1
2018-Jul-21 13:00N 32°06' W 081°06'3 5.6
2018-Jul-21 12:30N 32°05' W 081°03'4 7.1
2018-Jul-21 12:00N 32°05' W 080°59'510.2
2018-Jul-21 11:30N 32°02' W 080°54'611.5
2018-Jul-21 11:00N 32°00' W 080°48'814.8
2018-Jul-21 10:30N 31°57' W 080°40'5 8.8
2018-Jul-21 09:58N 31°53' W 080°37'611.4
2018-Jul-21 09:28N 31°48' W 080°33'29517.1
2018-Jul-20 16:16N 26°57' W 079°45'2524.5
2018-Jul-20 15:16N 26°32' W 079°47'724.3
2018-Jul-20 14:59N 26°25' W 079°47'1224.3
2018-Jul-20 14:30N 26°14' W 079°46'1224.3
2018-Jul-20 14:00N 26°02' W 079°48'1224.5
2018-Jul-20 13:30N 25°49' W 079°50'1224.2
2018-Jul-20 13:01N 25°38' W 079°53'1224.1
2018-Jul-20 12:31N 25°26' W 079°57'29519.0
2018-Jul-19 20:56N 25°05' W 085°22'47019.9
2018-Jul-18 21:16N 28°27' W 093°18'1020.6
2018-Jul-18 20:48N 28°33' W 093°26'620.7
2018-Jul-18 20:30N 28°37' W 093°32'1120.4
2018-Jul-18 19:59N 28°43' W 093°42'1020.5
2018-Jul-18 19:30N 28°49' W 093°51'1120.7
2018-Jul-18 18:58N 28°52' W 094°03'1220.9
2018-Jul-18 18:24N 28°55' W 094°16'819.4
2018-Jul-18 18:00N 28°57' W 094°25'1019.5
2018-Jul-18 17:29N 29°07' W 094°26'1019.8
2018-Jul-18 17:01N 29°14' W 094°33'714.7
2018-Jul-18 16:30N 29°19' W 094°39'510.7
2018-Jul-18 16:00N 29°21' W 094°45'510.5
2018-Jul-18 15:30N 29°24' W 094°49'510.9
2018-Jul-18 15:00N 29°29' W 094°52'5 9.2
2018-Jul-18 14:30N 29°33' W 094°55'9 8.8
2018-Jul-18 13:30N 29°41' W 094°59'0 0.8
2018-Jul-18 13:00N 29°41' W 094°60'0 0.0
2018-Jul-18 12:30N 29°41' W 094°60'0 0.0
2018-Jul-18 11:59N 29°41' W 094°60'0 0.0
2018-Jul-18 11:29N 29°41' W 094°60'0 0.0
2018-Jul-18 10:29N 29°41' W 094°60'0 0.0
2018-Jul-18 09:59N 29°41' W 094°60'0 0.0
2018-Jul-18 09:29N 29°41' W 094°60'0 0.0
2018-Jul-18 08:59N 29°41' W 094°60'0 0.0
2018-Jul-18 08:29N 29°41' W 094°60'0 0.0
2018-Jul-18 07:59N 29°41' W 094°60'0 0.0
2018-Jul-18 07:29N 29°41' W 094°60'0 0.0
2018-Jul-18 06:59N 29°41' W 094°60'0 0.0
2018-Jul-18 06:29N 29°41' W 094°60'0 0.0
2018-Jul-18 05:59N 29°41' W 094°60'0 0.0
2018-Jul-18 05:29N 29°41' W 094°60'0 0.0
2018-Jul-18 04:59N 29°41' W 094°60'0 0.0
2018-Jul-18 04:29N 29°41' W 094°60'0 0.0
2018-Jul-18 03:59N 29°41' W 094°60'0 0.0
2018-Jul-18 03:29N 29°41' W 094°60'0 0.0
2018-Jul-18 02:59N 29°41' W 094°60'0 0.0
2018-Jul-18 02:29N 29°41' W 094°60'0 0.0
2018-Jul-18 01:59N 29°41' W 094°60'0 0.0
2018-Jul-18 01:29N 29°41' W 094°60'0 0.0
2018-Jul-18 00:59N 29°41' W 094°60'0 0.0
2018-Jul-18 00:26N 29°41' W 094°60'0 0.0
2018-Jul-17 23:59N 29°41' W 094°60'0 0.0
2018-Jul-17 23:29N 29°41' W 094°60'0 0.0
2018-Jul-17 22:59N 29°41' W 094°60'0 0.0
2018-Jul-17 22:29N 29°41' W 094°60'0 0.0
2018-Jul-17 21:59N 29°41' W 094°60'0 0.0
2018-Jul-17 21:29N 29°41' W 094°60'0 0.0
2018-Jul-17 20:59N 29°41' W 094°60'0 0.0
2018-Jul-17 20:29N 29°41' W 094°60'0 0.0
2018-Jul-17 19:59N 29°41' W 094°60'0 0.0
2018-Jul-17 19:29N 29°41' W 094°60'0 0.0
2018-Jul-17 18:59N 29°41' W 094°60'0 0.0
2018-Jul-17 18:29N 29°41' W 094°60'0 0.0
2018-Jul-17 17:59N 29°41' W 094°60'0 0.0
2018-Jul-17 17:26N 29°41' W 094°60'0 0.0
2018-Jul-17 16:59N 29°41' W 094°60'0 0.0
2018-Jul-17 16:29N 29°41' W 094°60'0 0.0
2018-Jul-17 15:59N 29°41' W 094°60'0 0.0
2018-Jul-17 15:26N 29°41' W 094°60'0 0.0
2018-Jul-17 14:59N 29°41' W 094°60'0 0.0
2018-Jul-17 14:29N 29°41' W 094°60'0 0.0
2018-Jul-17 13:59N 29°41' W 094°60'0 0.0
2018-Jul-17 13:29N 29°41' W 094°60'0 0.0
2018-Jul-17 12:59N 29°41' W 094°60'0 0.0
2018-Jul-17 12:29N 29°41' W 094°60'0 0.0
2018-Jul-17 11:59N 29°41' W 094°60'0 0.0
2018-Jul-17 11:29N 29°41' W 094°60'0 0.0
2018-Jul-17 10:59N 29°41' W 094°60'0 0.0
2018-Jul-17 10:29N 29°41' W 094°60'0 0.0
2018-Jul-17 09:59N 29°41' W 094°60'0 0.0
2018-Jul-17 09:29N 29°41' W 094°60'0 0.0
2018-Jul-17 08:56N 29°41' W 094°60'0 0.0
2018-Jul-17 08:29N 29°41' W 094°60'0 0.0
2018-Jul-17 07:56N 29°41' W 094°60'0 0.0
2018-Jul-17 07:29N 29°41' W 094°60'0 0.0
2018-Jul-17 06:59N 29°41' W 094°60'0 0.0
2018-Jul-17 06:29N 29°41' W 094°60'0 0.0
2018-Jul-17 05:59N 29°41' W 094°60'0 0.0
2018-Jul-17 05:29N 29°41' W 094°60'0 0.0
2018-Jul-17 04:59N 29°41' W 094°60'0 0.0
2018-Jul-17 04:29N 29°41' W 094°60'0 0.0
2018-Jul-17 03:59N 29°41' W 094°60'0 0.0
2018-Jul-17 03:29N 29°41' W 094°60'0 1.0
2018-Jul-17 03:01N 29°41' W 094°59'4 7.3
2018-Jul-17 02:30N 29°38' W 094°58'611.0
2018-Jul-17 02:00N 29°33' W 094°54'611.9
2018-Jul-17 01:30N 29°28' W 094°51'611.9
2018-Jul-17 01:00N 29°22' W 094°48'611.1
2018-Jul-17 00:30N 29°21' W 094°42'1212.2
2018-Jul-16 23:30N 29°14' W 094°30'5 9.6
2018-Jul-16 23:00N 29°12' W 094°26'714.0
2018-Jul-16 22:30N 29°07' W 094°19'714.2
2018-Jul-16 22:00N 29°03' W 094°12'917.4
2018-Jul-16 21:30N 28°58' W 094°04'1019.6
2018-Jul-16 21:00N 28°53' W 093°55'1119.9
2018-Jul-16 20:27N 28°46' W 093°45'1119.8
2018-Jul-16 19:55N 28°40' W 093°35'919.8
2018-Jul-16 19:29N 28°35' W 093°27'1019.6
2018-Jul-16 18:58N 28°29' W 093°18'71718.7
2018-Jul-15 04:36N 24°43' W 080°37'2018.4
2018-Jul-15 03:30N 24°55' W 080°19'1517.7
2018-Jul-15 02:39N 25°07' W 080°09'418.3
2018-Jul-15 02:27N 25°10' W 080°07'818.3
2018-Jul-15 02:01N 25°18' W 080°04'816.9
2018-Jul-15 01:30N 25°26' W 080°02'917.7
2018-Jul-15 01:01N 25°35' W 080°02'917.7
2018-Jul-15 00:31N 25°44' W 080°02'918.6
2018-Jul-15 00:01N 25°53' W 080°02'918.7
2018-Jul-14 23:30N 26°02' W 080°03'5 9.2
2018-Jul-14 23:00N 26°06' W 080°06'1 2.7
2018-Jul-14 22:28N 26°04' W 080°07'0 0.0
2018-Jul-14 21:55N 26°04' W 080°07'0 0.0
2018-Jul-14 21:25N 26°04' W 080°07'0 0.0
2018-Jul-14 20:55N 26°04' W 080°07'0 0.0
2018-Jul-14 20:28N 26°04' W 080°07'0 0.0
2018-Jul-14 19:58N 26°04' W 080°07'0 0.0
2018-Jul-14 19:28N 26°04' W 080°07'0 0.0
2018-Jul-14 18:58N 26°04' W 080°07'0 0.0
2018-Jul-14 18:28N 26°04' W 080°07'0 0.0
2018-Jul-14 17:58N 26°04' W 080°07'0 0.0
2018-Jul-14 17:28N 26°04' W 080°07'0 0.0
2018-Jul-14 16:58N 26°04' W 080°07'0 0.0
2018-Jul-14 16:28N 26°04' W 080°07'0 0.0
2018-Jul-14 15:58N 26°04' W 080°07'0 0.0
2018-Jul-14 15:28N 26°04' W 080°07'0 0.0
2018-Jul-14 14:58N 26°04' W 080°07'0 0.0
2018-Jul-14 13:58N 26°04' W 080°07'0 0.0
2018-Jul-14 13:19N 26°04' W 080°07'0 0.0
2018-Jul-14 12:58N 26°04' W 080°07'0 0.0
2018-Jul-14 12:25N 26°04' W 080°07'0 0.0
2018-Jul-14 11:52N 26°04' W 080°07'0 0.0
2018-Jul-14 11:28N 26°04' W 080°07'1 2.0
2018-Jul-14 11:00N 26°05' W 080°07'3 6.7
2018-Jul-14 10:30N 26°05' W 080°03'2 3.5
2018-Jul-14 10:00N 26°06' W 080°01'0 0.5
2018-Jul-14 09:30N 26°06' W 080°02'1 2.2
2018-Jul-14 09:00N 26°07' W 080°02'611.4
2018-Jul-14 08:30N 26°13' W 080°01'918.3
2018-Jul-14 08:00N 26°22' W 079°59'917.2
2018-Jul-14 07:30N 26°30' W 079°58'3 4.9
2018-Jul-14 06:59N 26°28' W 079°58'816.9
2018-Jul-14 06:31N 26°36' W 079°58'816.1
2018-Jul-14 06:00N 26°44' W 079°56'917.4
2018-Jul-14 05:30N 26°46' W 079°46'815.3
2018-Jul-14 05:00N 26°48' W 079°55'815.6
2018-Jul-14 04:30N 26°56' W 079°57'816.1
2018-Jul-14 04:00N 27°04' W 079°58'26612.2
2018-Jul-13 06:10N 31°30' W 079°54'718.6
2018-Jul-13 05:48N 31°36' W 079°52'1218.6
2018-Jul-13 05:10N 31°48' W 079°48'618.8
2018-Jul-13 04:53N 31°53' W 079°46'718.7
2018-Jul-13 04:30N 31°59' W 079°43'918.7
2018-Jul-13 04:00N 32°09' W 079°42'918.7
2018-Jul-13 03:30N 32°18' W 079°41'1018.7
2018-Jul-13 02:59N 32°28' W 079°40'1116.5
2018-Jul-13 02:18N 32°39' W 079°40'515.2
2018-Jul-13 02:00N 32°42' W 079°45'817.1
2018-Jul-13 01:30N 32°46' W 079°53'9 2.2
2018-Jul-12 21:28N 32°54' W 079°58'0 0.0
2018-Jul-12 20:55N 32°54' W 079°58'0 0.0
2018-Jul-12 20:25N 32°54' W 079°58'0 0.0
2018-Jul-12 19:58N 32°54' W 079°58'0 0.0
2018-Jul-12 19:28N 32°54' W 079°58'0 0.0
2018-Jul-12 18:55N 32°54' W 079°58'0 0.0
2018-Jul-12 18:25N 32°54' W 079°58'0 0.0
2018-Jul-12 17:40N 32°54' W 079°58'0 0.0
2018-Jul-12 17:19N 32°54' W 079°58'0 0.0
2018-Jul-12 16:49N 32°54' W 079°58'0 0.0
2018-Jul-12 16:10N 32°54' W 079°58'0 0.0
2018-Jul-12 15:58N 32°54' W 079°58'0 0.0
2018-Jul-12 15:28N 32°54' W 079°58'0 0.0
2018-Jul-12 14:58N 32°54' W 079°58'0 0.0
2018-Jul-12 14:19N 32°54' W 079°58'9 1.6
2018-Jul-12 08:32N 32°46' W 079°53'111.0
2018-Jul-12 08:29N 32°46' W 079°52'714.0
2018-Jul-12 08:00N 32°42' W 079°46'713.2
2018-Jul-12 07:30N 32°38' W 079°39'2 3.0
2018-Jul-12 06:56N 32°37' W 079°39'0 0.5
2018-Jul-12 06:18N 32°37' W 079°39'0 0.3
2018-Jul-12 05:58N 32°37' W 079°39'0 0.8
2018-Jul-12 05:29N 32°37' W 079°40'0 0.5
2018-Jul-12 05:00N 32°37' W 079°40'0 0.6
2018-Jul-12 04:30N 32°37' W 079°40'0 0.7
2018-Jul-12 04:00N 32°37' W 079°40'0 0.4
2018-Jul-12 03:29N 32°37' W 079°40'0 0.9
2018-Jul-12 03:00N 32°37' W 079°39'2 3.4
2018-Jul-12 02:30N 32°36' W 079°38'0 0.2
2018-Jul-12 01:56N 32°36' W 079°38'0 0.2
2018-Jul-12 01:30N 32°36' W 079°38'1 0.9
2018-Jul-12 00:57N 32°36' W 079°37'1 1.7
2018-Jul-12 00:30N 32°35' W 079°36'0 0.8
2018-Jul-11 23:59N 32°35' W 079°37'1 2.2
2018-Jul-11 23:30N 32°35' W 079°35'510.4
2018-Jul-11 23:01N 32°35' W 079°29'917.6
2018-Jul-11 22:30N 32°33' W 079°19'918.3
2018-Jul-11 22:00N 32°32' W 079°08'1018.8
2018-Jul-11 21:29N 32°31' W 078°57'919.2
2018-Jul-11 21:00N 32°29' W 078°46'1019.7
2018-Jul-11 20:30N 32°28' W 078°34'1019.4
2018-Jul-11 20:00N 32°27' W 078°23'1020.4
2018-Jul-11 19:30N 32°27' W 078°11'  

Dump ship's entire track history